Time;durP1;ratioP1;P1;durP2;ratioP2;P2;SDS_P1;SDS_P2;PMS_P1;PMS_P2;Temp;Humidity;BMP_temperature;BMP_pressure;BME280_temperature;BME280_humidity;BME280_pressure;Samples;Min_cycle;Max_cycle;Signal;HPM_P1;HPM_P2
2023/02/22 00:08:29;;;;;;;94.07;39.28;;;3.80;99.90;;;;;;20965819;28;20060;-57
2023/02/22 00:18:30;;;;;;;84.47;38.25;;;3.70;99.90;;;;;;20988499;28;20036;-64
2023/02/22 00:28:32;;;;;;;88.47;38.50;;;3.70;99.90;;;;;;20993901;28;20024;-64
2023/02/22 00:38:34;;;;;;;76.80;36.10;;;3.80;99.90;;;;;;20979210;28;20042;-64
2023/02/22 00:48:37;;;;;;;71.45;33.33;;;3.90;99.90;;;;;;20998389;28;20045;-65
2023/02/22 00:58:38;;;;;;;76.32;35.50;;;3.90;99.90;;;;;;20990551;28;20031;-64
2023/02/22 01:08:44;;;;;;;73.03;34.42;;;4.00;99.90;;;;;;20991518;28;20452;-57
2023/02/22 01:18:46;;;;;;;65.22;30.92;;;3.90;99.90;;;;;;20995794;28;20432;-64
2023/02/22 01:28:47;;;;;;;65.22;31.83;;;3.90;99.90;;;;;;20984821;28;20385;-65
2023/02/22 01:38:49;;;;;;;63.65;31.38;;;4.00;99.90;;;;;;20980378;28;20043;-58
2023/02/22 01:49:00;;;;;;;68.82;33.45;;;4.00;99.90;;;;;;20994082;28;20389;-64
2023/02/22 01:59:07;;;;;;;78.88;37.00;;;4.10;99.90;;;;;;20990730;28;20033;-58
2023/02/22 02:09:34;;;;;;;75.85;35.03;;;4.00;99.90;;;;;;20983978;28;20056;-57
2023/02/22 02:20:06;;;;;;;80.18;35.47;;;3.90;99.90;;;;;;20984190;28;20469;-58
2023/02/22 02:30:43;;;;;;;85.85;35.85;;;3.80;99.90;;;;;;20976005;28;20032;-58
2023/02/22 02:41:16;;;;;;;77.45;34.55;;;3.70;99.90;;;;;;20977136;28;20041;-57
2023/02/22 02:51:20;;;;;;;81.28;35.55;;;3.70;99.90;;;;;;20980919;28;20560;-63
2023/02/22 03:02:01;;;;;;;75.50;35.42;;;3.70;99.90;;;;;;20980539;28;20039;-58
2023/02/22 03:12:24;;;;;;;78.97;35.70;;;3.70;99.90;;;;;;20968882;28;20070;-58
2023/02/22 03:22:37;;;;;;;68.03;32.20;;;3.70;99.90;;;;;;20982047;28;20485;-64
2023/02/22 03:32:43;;;;;;;79.35;34.15;;;3.70;99.90;;;;;;20976962;28;20101;-58
2023/02/22 03:42:50;;;;;;;77.82;35.95;;;3.60;99.90;;;;;;20978764;28;20035;-64
2023/02/22 03:52:53;;;;;;;73.50;35.20;;;3.30;99.90;;;;;;20987683;28;20036;-65
2023/02/22 04:03:02;;;;;;;78.15;35.30;;;3.30;99.90;;;;;;21000936;28;20059;-64
2023/02/22 04:13:09;;;;;;;81.45;35.58;;;3.20;99.90;;;;;;20981212;28;20041;-65
2023/02/22 04:23:15;;;;;;;84.80;37.95;;;2.90;99.90;;;;;;20992915;28;20036;-65
2023/02/22 04:33:18;;;;;;;83.88;37.53;;;2.70;99.90;;;;;;21001020;28;20527;-65
2023/02/22 04:43:21;;;;;;;84.30;36.90;;;2.70;99.90;;;;;;20985528;28;20460;-57
2023/02/22 04:53:26;;;;;;;94.90;40.63;;;2.60;99.90;;;;;;20996288;28;20032;-65
2023/02/22 05:03:28;;;;;;;72.00;32.38;;;2.60;99.90;;;;;;20997410;28;20043;-58
2023/02/22 05:13:30;;;;;;;81.18;34.47;;;2.50;99.90;;;;;;20990087;28;20044;-64
2023/02/22 05:23:32;;;;;;;89.90;36.50;;;2.40;99.90;;;;;;20969479;28;20066;-64
2023/02/22 05:33:35;;;;;;;99.82;40.63;;;2.40;99.90;;;;;;20979354;28;20071;-57
2023/02/22 05:43:38;;;;;;;92.53;38.63;;;2.40;99.90;;;;;;20985939;28;20111;-58
2023/02/22 05:53:41;;;;;;;93.60;38.83;;;2.20;99.90;;;;;;20987621;28;20028;-57
2023/02/22 06:03:49;;;;;;;97.65;39.63;;;2.20;99.90;;;;;;20991868;28;20090;-64
2023/02/22 06:13:52;;;;;;;84.53;36.25;;;2.10;99.90;;;;;;20943996;28;20056;-58
2023/02/22 06:23:53;;;;;;;94.20;40.60;;;2.20;99.90;;;;;;20977192;28;20474;-64
2023/02/22 06:33:55;;;;;;;87.82;38.15;;;2.20;99.90;;;;;;20959581;28;20071;-58
2023/02/22 06:43:56;;;;;;;79.30;35.05;;;2.30;99.90;;;;;;20965599;28;20037;-57
2023/02/22 06:53:58;;;;;;;83.25;36.95;;;2.40;99.90;;;;;;20976666;28;20535;-60
2023/02/22 07:03:59;;;;;;;85.25;34.58;;;2.50;99.90;;;;;;20986805;28;20033;-57
2023/02/22 07:14:01;;;;;;;79.10;34.78;;;2.60;99.90;;;;;;20979197;28;20041;-64
2023/02/22 07:24:03;;;;;;;74.55;35.33;;;3.00;99.90;;;;;;20974088;28;20409;-64
2023/02/22 07:34:05;;;;;;;76.15;33.33;;;3.20;99.90;;;;;;20955320;28;20474;-64
2023/02/22 07:44:07;;;;;;;71.10;32.10;;;3.40;99.90;;;;;;20965330;28;20044;-57
2023/02/22 07:54:09;;;;;;;65.53;33.03;;;3.60;99.90;;;;;;20968401;28;20546;-58
2023/02/22 08:04:10;;;;;;;56.72;29.10;;;3.60;99.90;;;;;;20983992;28;20040;-64
2023/02/22 08:14:15;;;;;;;72.72;34.28;;;3.20;99.90;;;;;;20980054;28;20040;-58
2023/02/22 08:24:17;;;;;;;64.90;31.23;;;3.40;99.90;;;;;;20977659;28;20043;-65
2023/02/22 08:34:19;;;;;;;63.13;30.90;;;3.80;99.90;;;;;;20970974;28;20037;-64
2023/02/22 08:44:23;;;;;;;72.28;31.73;;;3.90;99.90;;;;;;20991377;28;20029;-65
2023/02/22 08:54:24;;;;;;;92.15;42.40;;;4.10;99.90;;;;;;20993948;28;20032;-64
2023/02/22 09:04:26;;;;;;;85.75;42.42;;;4.50;99.90;;;;;;20980921;28;20032;-64
2023/02/22 09:14:27;;;;;;;86.28;41.17;;;5.30;99.90;;;;;;20995283;28;20106;-57
2023/02/22 09:24:29;;;;;;;75.13;39.25;;;6.00;99.90;;;;;;20989012;28;20448;-64
2023/02/22 09:34:34;;;;;;;81.88;42.25;;;6.60;99.90;;;;;;20995493;28;20071;-64
2023/02/22 09:44:44;;;;;;;75.55;39.53;;;6.70;99.90;;;;;;20982088;28;20040;-55
2023/02/22 09:54:51;;;;;;;74.88;40.00;;;7.40;99.90;;;;;;20992147;28;20086;-57
2023/02/22 10:05:04;;;;;;;71.47;39.53;;;7.80;99.90;;;;;;20992956;28;20112;-57
2023/02/22 10:15:27;;;;;;;73.35;40.22;;;8.00;99.90;;;;;;20967580;28;20430;-63
2023/02/22 10:25:35;;;;;;;77.60;41.30;;;8.00;99.90;;;;;;20969468;28;20371;-64
2023/02/22 10:35:39;;;;;;;83.88;42.22;;;7.70;99.90;;;;;;20985769;28;20032;-64
2023/02/22 10:45:41;;;;;;;83.07;43.40;;;7.80;99.90;;;;;;20988279;28;20040;-57
2023/02/22 10:56:05;;;;;;;81.43;43.17;;;8.00;99.90;;;;;;20982779;28;21560;-56
2023/02/22 11:06:33;;;;;;;74.88;40.88;;;8.10;99.90;;;;;;20975321;28;20048;-54
2023/02/22 11:17:12;;;;;;;74.60;41.50;;;8.40;99.90;;;;;;20985584;28;20052;-56
2023/02/22 11:27:37;;;;;;;72.57;40.00;;;9.20;99.90;;;;;;20737665;28;20169;-57
2023/02/22 11:37:39;;;;;;;77.35;42.08;;;9.50;99.90;;;;;;20775242;28;20438;-61
2023/02/22 11:48:18;;;;;;;73.78;42.88;;;10.00;99.90;;;;;;20729393;28;20042;-53
2023/02/22 11:58:55;;;;;;;75.88;43.90;;;10.70;99.90;;;;;;20552178;28;20554;-63
2023/02/22 12:09:36;;;;;;;88.00;47.78;;;11.00;99.90;;;;;;20639647;28;20117;-57
2023/02/22 12:19:48;;;;;;;83.85;46.10;;;10.70;99.90;;;;;;20640003;28;20058;-57
2023/02/22 12:30:00;;;;;;;110.00;55.33;;;9.90;99.90;;;;;;20818051;28;20397;-64
2023/02/22 12:40:39;;;;;;;117.25;58.83;;;8.90;99.90;;;;;;20997542;28;20036;-57
2023/02/22 12:50:43;;;;;;;105.50;53.75;;;8.00;99.90;;;;;;20997154;28;20117;-64
2023/02/22 13:00:50;;;;;;;126.70;59.17;;;7.50;99.90;;;;;;20983168;28;20033;-64
2023/02/22 13:11:02;;;;;;;145.07;58.83;;;6.90;99.90;;;;;;20951692;28;20802;-64
2023/02/22 13:21:21;;;;;;;173.30;66.93;;;6.50;99.90;;;;;;20980432;28;20041;-57
2023/02/22 13:31:32;;;;;;;140.88;62.30;;;6.00;99.90;;;;;;20995285;28;20093;-65
2023/02/22 13:41:58;;;;;;;170.48;56.28;;;5.80;99.90;;;;;;20987747;28;20024;-57
2023/02/22 13:52:06;;;;;;;255.00;66.05;;;5.70;99.90;;;;;;20989042;28;20036;-57
2023/02/22 14:02:54;;;;;;;377.88;68.53;;;5.60;99.90;;;;;;20992071;28;20530;-64
2023/02/22 14:13:04;;;;;;;300.90;67.45;;;5.30;99.90;;;;;;20987815;28;20052;-57
2023/02/22 14:23:36;;;;;;;148.63;62.60;;;5.10;99.90;;;;;;20985475;28;20546;-64
2023/02/22 14:33:55;;;;;;;172.95;62.28;;;5.00;99.90;;;;;;20976064;28;20114;-57
2023/02/22 14:43:58;;;;;;;233.95;63.47;;;5.00;99.90;;;;;;20986194;28;20036;-63
2023/02/22 14:54:12;;;;;;;145.05;57.90;;;4.90;99.90;;;;;;20988190;28;20032;-57
2023/02/22 15:04:29;;;;;;;170.95;62.30;;;4.80;99.90;;;;;;20974943;28;20033;-57
2023/02/22 15:14:36;;;;;;;129.23;55.33;;;4.70;99.90;;;;;;20981353;28;20049;-58
2023/02/22 15:24:38;;;;;;;146.63;58.42;;;4.60;99.90;;;;;;20979430;28;20051;-64
2023/02/22 15:34:41;;;;;;;126.78;52.20;;;4.50;99.90;;;;;;20985323;28;20032;-57
2023/02/22 15:44:43;;;;;;;162.18;60.85;;;4.50;99.90;;;;;;20970561;28;20358;-64
2023/02/22 15:54:49;;;;;;;168.85;60.88;;;4.50;99.90;;;;;;20980169;28;20111;-64
2023/02/22 16:04:58;;;;;;;137.43;54.25;;;4.40;99.90;;;;;;20984570;28;20060;-64
2023/02/22 16:15:01;;;;;;;154.27;61.30;;;4.30;99.90;;;;;;20934746;28;20052;-58
2023/02/22 16:25:36;;;;;;;152.70;58.75;;;4.30;99.90;;;;;;20969508;28;20409;-64
2023/02/22 16:35:38;;;;;;;257.42;66.38;;;4.20;99.90;;;;;;20934641;28;20109;-58
2023/02/22 16:45:40;;;;;;;286.75;67.47;;;4.20;99.90;;;;;;20970855;28;20066;-64
2023/02/22 16:55:45;;;;;;;164.18;60.00;;;4.20;99.90;;;;;;20970362;28;20401;-57
2023/02/22 17:05:47;;;;;;;140.23;53.25;;;4.10;99.90;;;;;;20995160;28;20036;-64
2023/02/22 17:15:49;;;;;;;149.95;55.38;;;4.00;99.90;;;;;;20991160;28;20592;-57
2023/02/22 17:26:00;;;;;;;157.73;57.72;;;4.00;99.90;;;;;;20981961;28;20036;-57
2023/02/22 17:36:04;;;;;;;132.68;52.53;;;4.00;99.90;;;;;;20973373;28;20041;-57
2023/02/22 17:46:06;;;;;;;106.00;42.50;;;4.00;99.90;;;;;;20951337;28;20029;-57
2023/02/22 17:56:12;;;;;;;119.55;45.40;;;3.70;99.90;;;;;;20973111;28;20504;-59
2023/02/22 18:06:19;;;;;;;123.05;45.83;;;3.00;99.90;;;;;;20984607;28;20033;-67
2023/02/22 18:16:21;;;;;;;128.68;44.63;;;2.40;99.90;;;;;;20991334;28;20454;-63
2023/02/22 18:26:24;;;;;;;132.95;46.15;;;1.90;99.90;;;;;;20985738;28;20413;-68
2023/02/22 18:36:25;;;;;;;153.10;47.83;;;1.60;99.90;;;;;;20974466;28;20028;-67
2023/02/22 18:46:28;;;;;;;132.30;43.75;;;1.30;99.90;;;;;;20989477;28;20478;-67
2023/02/22 18:56:30;;;;;;;124.78;44.80;;;1.40;99.90;;;;;;20975933;28;20385;-60
2023/02/22 19:06:33;;;;;;;120.20;42.80;;;1.30;99.90;;;;;;20985709;28;20037;-60
2023/02/22 19:16:35;;;;;;;126.88;43.63;;;1.20;99.90;;;;;;20986177;28;20052;-58
2023/02/22 19:26:37;;;;;;;146.25;49.30;;;1.10;99.90;;;;;;20978317;28;20032;-67
2023/02/22 19:36:44;;;;;;;146.00;47.63;;;0.90;99.90;;;;;;20977373;28;20040;-67
2023/02/22 19:46:46;;;;;;;144.68;47.08;;;0.80;99.90;;;;;;20983824;28;20515;-60
2023/02/22 19:56:50;;;;;;;146.30;45.83;;;0.70;99.90;;;;;;20984821;28;20372;-60
2023/02/22 20:06:53;;;;;;;151.05;47.60;;;0.60;99.90;;;;;;20978975;28;20074;-59
2023/02/22 20:16:56;;;;;;;143.07;45.95;;;0.50;99.90;;;;;;20984808;28;20102;-60
2023/02/22 20:26:58;;;;;;;115.85;38.45;;;0.40;99.90;;;;;;20975653;28;20478;-61
2023/02/22 20:37:01;;;;;;;123.00;41.90;;;0.40;99.90;;;;;;20981635;28;20563;-60
2023/02/22 20:47:03;;;;;;;133.45;42.50;;;0.30;99.90;;;;;;20999333;28;20032;-60
2023/02/22 20:57:06;;;;;;;124.45;41.38;;;0.30;99.90;;;;;;20992527;28;20036;-60
2023/02/22 21:07:09;;;;;;;113.53;38.83;;;0.40;99.90;;;;;;20993365;28;20036;-60
2023/02/22 21:17:10;;;;;;;194.82;55.97;;;0.40;99.90;;;;;;20995504;28;20052;-59
2023/02/22 21:27:12;;;;;;;137.40;44.45;;;0.50;99.90;;;;;;20985201;28;20169;-60
2023/02/22 21:37:16;;;;;;;122.95;41.97;;;0.50;99.90;;;;;;20981011;28;20025;-67
2023/02/22 21:47:18;;;;;;;144.50;43.78;;;0.20;99.90;;;;;;20984162;28;20025;-60
2023/02/22 21:57:20;;;;;;;167.18;50.38;;;0.10;99.90;;;;;;20991283;28;20438;-67
2023/02/22 22:07:22;;;;;;;144.68;44.42;;;0.30;99.90;;;;;;20984769;28;20032;-67
2023/02/22 22:17:23;;;;;;;85.60;29.67;;;0.40;99.90;;;;;;20992296;28;20078;-67
2023/02/22 22:27:26;;;;;;;100.35;36.15;;;0.50;99.90;;;;;;20978288;28;20032;-67
2023/02/22 22:37:28;;;;;;;87.20;32.58;;;0.20;99.90;;;;;;20976136;28;20062;-59
2023/02/22 22:47:30;;;;;;;96.18;34.53;;;0.00;99.90;;;;;;20989999;28;20037;-61
2023/02/22 22:57:32;;;;;;;83.80;30.63;;;-0.10;99.90;;;;;;20980881;28;20039;-60
2023/02/22 23:07:34;;;;;;;119.00;38.92;;;-0.10;99.90;;;;;;20982114;28;20036;-60
2023/02/22 23:17:44;;;;;;;124.13;41.03;;;-0.20;99.90;;;;;;20986462;28;20040;-68
2023/02/22 23:27:46;;;;;;;110.65;36.08;;;-0.20;99.90;;;;;;20981216;28;20136;-66
2023/02/22 23:37:52;;;;;;;108.25;37.35;;;-0.20;99.90;;;;;;20970395;28;20029;-59
2023/02/22 23:47:55;;;;;;;101.78;33.70;;;-0.20;99.90;;;;;;20986303;28;20032;-66
2023/02/22 23:57:58;;;;;;;115.40;39.13;;;-0.10;99.90;;;;;;20980337;28;20029;-65
